createdAt,value
2017-04-16T00:00:20.883Z,0
2017-04-16T00:01:30.328Z,0
2017-04-16T00:02:40.742Z,0
2017-04-16T00:03:50.889Z,0
2017-04-16T00:05:00.951Z,0
2017-04-16T00:06:10.697Z,0
2017-04-16T00:07:20.413Z,0
2017-04-16T00:08:30.203Z,0
2017-04-16T00:09:39.936Z,0
2017-04-16T00:10:49.451Z,0
2017-04-16T00:11:59.545Z,0
2017-04-16T00:13:09.680Z,0
2017-04-16T00:14:19.486Z,0
2017-04-16T00:15:29.556Z,0
2017-04-16T00:16:39.358Z,0
2017-04-16T00:17:49.399Z,0
2017-04-16T00:18:59.180Z,0
2017-04-16T00:20:09.269Z,0
2017-04-16T00:21:19.444Z,0
2017-04-16T00:22:29.597Z,0
2017-04-16T00:23:39.711Z,0
2017-04-16T00:24:49.462Z,0
2017-04-16T00:25:59.352Z,0
2017-04-16T00:27:09.088Z,0
2017-04-16T00:28:18.814Z,0
2017-04-16T00:29:28.515Z,0
2017-04-16T00:30:38.246Z,0
2017-04-16T00:31:48.314Z,0
2017-04-16T00:32:58.372Z,0
2017-04-16T00:34:08.500Z,0
2017-04-16T00:35:18.594Z,0
2017-04-16T00:36:28.355Z,0
2017-04-16T00:37:38.441Z,0
2017-04-16T00:38:48.298Z,0
2017-04-16T00:39:58.031Z,0
2017-04-16T00:41:08.133Z,0
2017-04-16T00:42:18.215Z,0
2017-04-16T00:43:28.342Z,0
2017-04-16T00:44:37.755Z,0
2017-04-16T00:45:47.909Z,0
2017-04-16T00:46:58.278Z,0
2017-04-16T00:48:08.375Z,0
2017-04-16T00:49:18.128Z,0
2017-04-16T00:50:28.201Z,0
2017-04-16T00:51:37.680Z,0
2017-04-16T00:52:48.241Z,0
2017-04-16T00:53:57.978Z,0
2017-04-16T00:55:08.117Z,0
2017-04-16T00:56:18.298Z,0
2017-04-16T00:57:28.414Z,0
2017-04-16T00:58:38.453Z,0
2017-04-16T00:59:48.242Z,0
2017-04-16T01:00:58.427Z,0
2017-04-16T01:02:08.498Z,0
2017-04-16T01:03:18.244Z,0
2017-04-16T01:04:28.006Z,0
2017-04-16T01:05:38.148Z,0
2017-04-16T01:06:47.930Z,0
2017-04-16T01:07:58.002Z,0
2017-04-16T01:09:07.762Z,0
2017-04-16T01:10:17.805Z,0
2017-04-16T01:11:27.629Z,0
2017-04-16T01:12:37.683Z,0
2017-04-16T01:13:47.786Z,0
2017-04-16T01:14:57.916Z,0
2017-04-16T01:16:08.282Z,0
2017-04-16T01:17:18.469Z,0
2017-04-16T01:18:28.541Z,0
2017-04-16T01:19:38.350Z,0
2017-04-16T01:20:48.157Z,0
2017-04-16T01:21:58.575Z,0
2017-04-16T01:23:08.676Z,0
2017-04-16T01:24:18.885Z,0
2017-04-16T01:25:28.992Z,0
2017-04-16T01:26:39.066Z,0
2017-04-16T01:27:49.431Z,0
2017-04-16T01:28:59.651Z,0
2017-04-16T01:30:09.494Z,0
2017-04-16T01:31:19.242Z,0
2017-04-16T01:32:29.319Z,0
2017-04-16T01:33:39.135Z,0
2017-04-16T01:34:49.222Z,0
2017-04-16T01:35:58.946Z,0
2017-04-16T01:37:08.698Z,0
2017-04-16T01:38:18.425Z,0
2017-04-16T01:39:28.830Z,0
2017-04-16T01:40:38.726Z,0
2017-04-16T01:41:48.472Z,0
2017-04-16T01:42:58.552Z,0
2017-04-16T01:44:08.719Z,0
2017-04-16T01:45:18.795Z,0
2017-04-16T01:46:28.310Z,0
2017-04-16T01:47:38.434Z,0
2017-04-16T01:48:48.495Z,0
2017-04-16T01:49:58.622Z,0
2017-04-16T01:51:08.674Z,0
2017-04-16T01:52:18.885Z,0
2017-04-16T01:53:29.041Z,0
2017-04-16T01:54:38.821Z,0
2017-04-16T01:55:48.608Z,0
2017-04-16T01:56:58.715Z,0
2017-04-16T01:58:08.861Z,0
2017-04-16T01:59:18.933Z,0
2017-04-16T02:00:29.023Z,0
2017-04-16T02:01:39.270Z,0
2017-04-16T02:02:49.686Z,0
2017-04-16T02:03:59.746Z,0
2017-04-16T02:05:09.812Z,0
2017-04-16T02:06:19.539Z,0
2017-04-16T02:07:29.598Z,0
2017-04-16T02:08:39.690Z,0
2017-04-16T02:09:49.759Z,0
2017-04-16T02:10:59.587Z,0
2017-04-16T02:12:09.681Z,0
2017-04-16T02:13:18.761Z,0
2017-04-16T02:14:29.337Z,0
2017-04-16T02:15:39.517Z,0
2017-04-16T02:16:49.629Z,0
2017-04-16T02:17:59.728Z,0
2017-04-16T02:19:09.880Z,0
2017-04-16T02:20:20.044Z,0
2017-04-16T02:21:30.117Z,0
2017-04-16T02:22:39.994Z,0
2017-04-16T02:23:50.110Z,0
2017-04-16T02:24:59.845Z,0
2017-04-16T02:26:09.996Z,0
2017-04-16T02:27:20.080Z,0
2017-04-16T02:28:29.831Z,0
2017-04-16T02:29:39.564Z,0
2017-04-16T02:30:49.634Z,0
2017-04-16T02:32:00.041Z,0
2017-04-16T02:33:09.505Z,0
2017-04-16T02:34:18.932Z,0
2017-04-16T02:35:28.728Z,0
2017-04-16T02:36:38.822Z,0
2017-04-16T02:37:49.334Z,0
2017-04-16T02:38:59.415Z,0
2017-04-16T02:40:09.481Z,0
2017-04-16T02:41:18.981Z,0
2017-04-16T02:42:28.766Z,0
2017-04-16T02:43:38.932Z,0
2017-04-16T02:44:49.094Z,0
2017-04-16T02:45:59.191Z,0
2017-04-16T02:47:09.267Z,0
2017-04-16T02:48:19.324Z,0
2017-04-16T02:49:29.640Z,0
2017-04-16T02:50:39.369Z,0
2017-04-16T02:51:49.110Z,0
2017-04-16T02:52:58.843Z,0
2017-04-16T02:54:08.953Z,0
2017-04-16T02:55:19.327Z,0
2017-04-16T02:56:29.067Z,0
2017-04-16T02:57:39.148Z,0
2017-04-16T02:58:49.314Z,0
2017-04-16T02:59:59.436Z,0
2017-04-16T03:01:09.796Z,0
2017-04-16T03:02:19.624Z,0
2017-04-16T03:03:29.922Z,0
2017-04-16T03:04:40.045Z,0
2017-04-16T03:05:50.019Z,0
2017-04-16T03:07:00.379Z,0
2017-04-16T03:08:10.107Z,0
2017-04-16T03:09:19.912Z,0
2017-04-16T03:10:30.095Z,0
2017-04-16T03:11:40.215Z,0
2017-04-16T03:12:50.594Z,0
2017-04-16T03:14:00.782Z,0
2017-04-16T03:15:10.612Z,0
2017-04-16T03:16:20.727Z,0
2017-04-16T03:17:30.469Z,0
2017-04-16T03:18:40.853Z,0
2017-04-16T03:19:50.580Z,0
2017-04-16T03:21:00.411Z,0
2017-04-16T03:22:10.139Z,0
2017-04-16T03:23:19.918Z,0
2017-04-16T03:24:29.964Z,0
2017-04-16T03:25:40.087Z,0
2017-04-16T03:26:49.971Z,0
2017-04-16T03:28:00.045Z,0
2017-04-16T03:29:09.778Z,0
2017-04-16T03:30:19.477Z,0
2017-04-16T03:31:29.543Z,0
2017-04-16T03:32:39.629Z,0
2017-04-16T03:33:49.381Z,0
2017-04-16T03:34:59.563Z,0
2017-04-16T03:36:09.970Z,0
2017-04-16T03:37:20.037Z,0
2017-04-16T03:38:29.856Z,0
2017-04-16T03:39:40.096Z,0
2017-04-16T03:40:50.272Z,0
2017-04-16T03:42:00.640Z,0
2017-04-16T03:43:10.375Z,0
2017-04-16T03:44:20.257Z,4
2017-04-16T03:45:30.319Z,4
2017-04-16T03:46:40.390Z,0
2017-04-16T03:47:50.842Z,4
2017-04-16T03:48:59.911Z,4
2017-04-16T03:50:09.710Z,4
2017-04-16T03:51:19.438Z,8
2017-04-16T03:52:29.649Z,12
2017-04-16T03:53:39.422Z,8
2017-04-16T03:54:49.543Z,12
2017-04-16T03:55:59.710Z,16
2017-04-16T03:57:09.771Z,16
2017-04-16T03:58:19.897Z,20
2017-04-16T03:59:30.271Z,28
2017-04-16T04:00:40.349Z,32
2017-04-16T04:01:50.511Z,40
2017-04-16T04:03:00.245Z,44
2017-04-16T04:04:10.433Z,56
2017-04-16T04:05:20.470Z,68
2017-04-16T04:06:30.208Z,76
2017-04-16T04:07:39.939Z,92
2017-04-16T04:08:50.208Z,108
2017-04-16T04:10:00.280Z,108
2017-04-16T04:11:10.427Z,112
2017-04-16T04:12:20.187Z,132
2017-04-16T04:13:30.319Z,136
2017-04-16T04:14:40.549Z,168
2017-04-16T04:15:50.359Z,212
2017-04-16T04:17:00.812Z,240
2017-04-16T04:18:10.618Z,260
2017-04-16T04:19:20.698Z,284
2017-04-16T04:20:30.426Z,280
2017-04-16T04:21:39.845Z,296
2017-04-16T04:22:49.884Z,316
2017-04-16T04:24:00.034Z,336
2017-04-16T04:25:10.144Z,356
2017-04-16T04:26:20.238Z,404
2017-04-16T04:27:29.681Z,464
2017-04-16T04:28:40.050Z,492
2017-04-16T04:29:49.932Z,496
2017-04-16T04:30:59.683Z,480
2017-04-16T04:32:09.493Z,452
2017-04-16T04:33:19.612Z,424
2017-04-16T04:34:29.753Z,408
2017-04-16T04:35:39.193Z,428
2017-04-16T04:36:48.929Z,488
2017-04-16T04:37:58.677Z,536
2017-04-16T04:39:08.418Z,608
2017-04-16T04:40:18.469Z,700
2017-04-16T04:41:28.740Z,740
2017-04-16T04:42:38.829Z,804
2017-04-16T04:43:48.567Z,896
2017-04-16T04:44:58.629Z,900
2017-04-16T04:46:09.052Z,952
2017-04-16T04:47:18.789Z,1004
2017-04-16T04:48:28.538Z,1148
2017-04-16T04:49:37.640Z,1288
2017-04-16T04:50:47.838Z,1360
2017-04-16T04:51:57.935Z,1396
2017-04-16T04:53:08.052Z,1496
2017-04-16T04:54:17.778Z,1664
2017-04-16T04:55:27.526Z,1428
2017-04-16T04:56:37.626Z,1284
2017-04-16T04:57:47.704Z,1176
2017-04-16T04:58:57.438Z,1260
2017-04-16T05:00:06.849Z,1364
2017-04-16T05:01:16.914Z,1376
2017-04-16T05:02:27.034Z,1376
2017-04-16T05:03:37.085Z,1664
2017-04-16T05:04:46.865Z,1860
2017-04-16T05:05:56.263Z,1892
2017-04-16T05:07:06.005Z,2016
2017-04-16T05:08:16.064Z,1896
2017-04-16T05:09:26.423Z,1740
2017-04-16T05:10:36.153Z,1684
2017-04-16T05:11:46.227Z,1856
2017-04-16T05:12:55.974Z,1876
2017-04-16T05:14:06.031Z,1672
2017-04-16T05:15:16.177Z,1460
2017-04-16T05:16:26.291Z,1328
2017-04-16T05:17:36.370Z,1476
2017-04-16T05:18:46.510Z,1584
2017-04-16T05:19:55.912Z,2036
2017-04-16T05:21:05.965Z,1780
2017-04-16T05:22:15.729Z,1812
2017-04-16T05:23:25.536Z,2000
2017-04-16T05:24:35.650Z,2340
2017-04-16T05:25:45.739Z,2332
2017-04-16T05:26:55.814Z,2424
2017-04-16T05:28:05.874Z,2608
2017-04-16T05:29:14.949Z,2344
2017-04-16T05:30:25.166Z,2088
2017-04-16T05:31:34.896Z,2240
2017-04-16T05:32:44.660Z,2660
2017-04-16T05:33:54.412Z,2692
2017-04-16T05:35:04.482Z,1924
2017-04-16T05:36:14.553Z,1712
2017-04-16T05:37:24.280Z,2144
2017-04-16T05:38:34.094Z,1560
2017-04-16T05:39:44.185Z,1564
2017-04-16T05:40:54.185Z,2136
2017-04-16T05:42:03.954Z,1876
2017-04-16T05:43:14.052Z,1940
2017-04-16T05:44:24.434Z,2208
2017-04-16T05:45:34.291Z,3028
2017-04-16T05:46:43.724Z,3072
2017-04-16T05:47:53.973Z,2956
2017-04-16T05:49:04.187Z,2944
2017-04-16T05:50:14.213Z,3388
2017-04-16T05:51:23.733Z,3544
2017-04-16T05:52:33.811Z,3548
2017-04-16T05:53:43.984Z,4140
2017-04-16T05:54:54.088Z,3124
2017-04-16T05:56:04.461Z,2304
2017-04-16T05:57:14.587Z,2104
2017-04-16T05:58:24.323Z,2512
2017-04-16T05:59:34.389Z,2604
2017-04-16T06:00:44.454Z,2476
2017-04-16T06:01:54.984Z,2764
2017-04-16T06:03:05.194Z,3708
2017-04-16T06:04:15.364Z,4316
2017-04-16T06:05:25.495Z,5356
2017-04-16T06:06:35.334Z,4352
2017-04-16T06:07:45.704Z,4912
2017-04-16T06:08:55.778Z,4000
2017-04-16T06:10:05.865Z,3908
2017-04-16T06:11:15.949Z,4408
2017-04-16T06:12:25.676Z,4176
2017-04-16T06:13:35.722Z,4808
2017-04-16T06:14:45.473Z,4588
2017-04-16T06:15:55.211Z,4472
2017-04-16T06:17:05.016Z,5284
2017-04-16T06:18:14.751Z,5620
2017-04-16T06:19:25.153Z,5416
2017-04-16T06:20:35.544Z,5328
2017-04-16T06:21:45.333Z,6668
2017-04-16T06:22:55.409Z,5416
2017-04-16T06:24:05.181Z,6272
2017-04-16T06:25:15.564Z,6956
2017-04-16T06:26:25.301Z,7292
2017-04-16T06:27:34.703Z,7560
2017-04-16T06:28:44.877Z,5336
2017-04-16T06:29:54.628Z,5240
2017-04-16T06:31:05.011Z,5492
2017-04-16T06:32:14.460Z,6576
2017-04-16T06:33:24.251Z,6956
2017-04-16T06:34:34.398Z,7256
2017-04-16T06:35:44.561Z,6820
2017-04-16T06:36:55.037Z,6912
2017-04-16T06:38:04.825Z,7164
2017-04-16T06:39:14.903Z,7328
2017-04-16T06:40:24.988Z,5568
2017-04-16T06:41:34.728Z,5900
2017-04-16T06:42:45.150Z,5720
2017-04-16T06:43:55.018Z,6748
2017-04-16T06:45:04.754Z,6076
2017-04-16T06:46:14.606Z,7212
2017-04-16T06:47:24.490Z,9248
2017-04-16T06:48:34.866Z,6600
2017-04-16T06:49:45.067Z,6544
2017-04-16T06:50:55.255Z,6020
2017-04-16T06:52:05.413Z,6920
2017-04-16T06:53:15.153Z,8724
2017-04-16T06:54:25.205Z,13060
2017-04-16T06:55:35.326Z,9752
2017-04-16T06:56:45.064Z,8872
2017-04-16T06:57:54.803Z,8636
2017-04-16T06:59:05.053Z,8248
2017-04-16T07:00:14.814Z,9740
2017-04-16T07:01:24.901Z,9852
2017-04-16T07:02:35.074Z,8716
2017-04-16T07:03:44.820Z,9212
2017-04-16T07:04:55.032Z,7316
2017-04-16T07:06:05.127Z,10004
2017-04-16T07:07:15.265Z,11500
2017-04-16T07:08:25.061Z,14544
2017-04-16T07:09:35.429Z,12308
2017-04-16T07:10:45.493Z,9516
2017-04-16T07:11:55.892Z,10180
2017-04-16T07:13:05.976Z,9704
2017-04-16T07:14:16.101Z,9148
2017-04-16T07:15:26.181Z,10444
2017-04-16T07:16:36.279Z,9524
2017-04-16T07:17:46.707Z,9824
2017-04-16T07:18:56.443Z,8348
2017-04-16T07:20:06.628Z,6216
2017-04-16T07:21:16.705Z,5292
2017-04-16T07:22:26.789Z,6100
2017-04-16T07:23:36.926Z,6568
2017-04-16T07:24:47.023Z,7224
2017-04-16T07:25:57.090Z,7600
2017-04-16T07:27:06.897Z,7664
2017-04-16T07:28:16.297Z,8596
2017-04-16T07:29:26.761Z,8216
2017-04-16T07:30:36.861Z,6156
2017-04-16T07:31:46.796Z,5360
2017-04-16T07:32:56.909Z,4592
2017-04-16T07:34:05.989Z,4504
2017-04-16T07:35:16.375Z,3728
2017-04-16T07:36:26.503Z,3248
2017-04-16T07:37:36.361Z,3244
2017-04-16T07:38:45.772Z,3940
2017-04-16T07:39:55.949Z,4680
2017-04-16T07:41:05.986Z,5412
2017-04-16T07:42:15.721Z,5088
2017-04-16T07:43:25.847Z,4556
2017-04-16T07:44:36.082Z,5176
2017-04-16T07:45:46.310Z,7068
2017-04-16T07:46:56.692Z,8452
2017-04-16T07:48:06.857Z,7580
2017-04-16T07:49:17.075Z,8368
2017-04-16T07:50:27.143Z,6980
2017-04-16T07:51:37.213Z,7988
2017-04-16T07:52:47.576Z,8512
2017-04-16T07:53:56.981Z,10124
2017-04-16T07:55:07.098Z,7748
2017-04-16T07:56:17.167Z,6928
2017-04-16T07:57:27.248Z,5340
2017-04-16T07:58:37.692Z,4640
2017-04-16T07:59:47.770Z,4204
2017-04-16T08:00:57.512Z,4396
2017-04-16T08:02:07.614Z,3772
2017-04-16T08:03:17.393Z,6512
2017-04-16T08:04:27.819Z,10324
2017-04-16T08:05:38.160Z,11824
2017-04-16T08:06:48.281Z,11644
2017-04-16T08:07:58.011Z,11256
2017-04-16T08:09:08.144Z,10568
2017-04-16T08:10:18.210Z,11788
2017-04-16T08:11:27.976Z,12864
2017-04-16T08:12:37.755Z,13144
2017-04-16T08:13:47.982Z,10816
2017-04-16T08:14:58.149Z,10500
2017-04-16T08:16:08.373Z,10192
2017-04-16T08:17:18.266Z,10808
2017-04-16T08:18:28.372Z,11788
2017-04-16T08:19:38.193Z,12060
2017-04-16T08:20:48.322Z,12932
2017-04-16T08:21:58.433Z,9356
2017-04-16T08:23:08.514Z,5416
2017-04-16T08:24:18.747Z,5944
2017-04-16T08:25:28.929Z,7236
2017-04-16T08:26:39.016Z,7688
2017-04-16T08:27:49.461Z,7888
2017-04-16T08:28:59.271Z,8684
2017-04-16T08:30:09.005Z,9504
2017-04-16T08:31:19.199Z,12012
2017-04-16T08:32:28.954Z,11960
2017-04-16T08:33:39.338Z,9276
2017-04-16T08:34:49.425Z,6956
2017-04-16T08:35:59.283Z,6576
2017-04-16T08:37:09.402Z,7352
2017-04-16T08:38:19.543Z,6964
2017-04-16T08:39:29.908Z,7040
2017-04-16T08:40:39.334Z,7484
2017-04-16T08:41:49.492Z,8584
2017-04-16T08:42:59.229Z,9644
2017-04-16T08:44:09.352Z,12572
2017-04-16T08:45:19.844Z,17280
2017-04-16T08:46:30.028Z,21632
2017-04-16T08:47:39.779Z,22880
2017-04-16T08:48:49.986Z,24512
2017-04-16T08:50:00.127Z,23488
2017-04-16T08:51:10.964Z,22880
2017-04-16T08:52:21.700Z,16704
2017-04-16T08:53:33.450Z,15840
2017-04-16T08:54:44.179Z,18176
2017-04-16T08:55:54.942Z,20480
2017-04-16T08:57:06.044Z,21792
2017-04-16T08:58:16.217Z,24000
2017-04-16T08:59:27.116Z,21600
2017-04-16T09:00:37.953Z,19136
2017-04-16T09:01:48.330Z,16576
2017-04-16T09:02:59.376Z,15004
2017-04-16T09:04:09.371Z,14724
2017-04-16T09:05:20.402Z,12636
2017-04-16T09:06:31.225Z,10252
2017-04-16T09:07:41.981Z,7808
2017-04-16T09:08:52.371Z,6824
2017-04-16T09:10:02.605Z,8644
2017-04-16T09:11:12.751Z,7944
2017-04-16T09:12:22.996Z,8504
2017-04-16T09:13:33.096Z,16352
2017-04-16T09:14:43.238Z,23264
2017-04-16T09:15:53.390Z,23360
2017-04-16T09:17:03.496Z,18944
2017-04-16T09:18:13.257Z,16064
2017-04-16T09:19:23.169Z,24736
2017-04-16T09:20:33.944Z,44864
2017-04-16T09:21:44.675Z,22848
2017-04-16T09:22:55.117Z,116672
2017-04-16T09:24:05.914Z,18784
2017-04-16T09:25:17.565Z,20672
2017-04-16T09:26:28.314Z,19904
2017-04-16T09:27:39.087Z,17952
2017-04-16T09:28:49.561Z,24352
2017-04-16T09:29:59.273Z,10148
2017-04-16T09:31:09.643Z,92160
2017-04-16T09:32:20.346Z,84032
2017-04-16T09:33:31.152Z,78912
2017-04-16T09:34:41.916Z,104128
2017-04-16T09:35:52.292Z,30624
2017-04-16T09:37:03.290Z,47360
2017-04-16T09:38:14.344Z,32128
2017-04-16T09:39:25.166Z,29312
2017-04-16T09:40:35.641Z,100352
2017-04-16T09:41:46.019Z,54016
2017-04-16T09:42:56.747Z,65856
2017-04-16T09:44:07.751Z,17376
2017-04-16T09:45:18.622Z,15840
2017-04-16T09:46:29.336Z,13016
2017-04-16T09:47:40.417Z,10600
2017-04-16T09:48:51.165Z,9388
2017-04-16T09:50:01.838Z,11712
2017-04-16T09:51:12.225Z,12316
2017-04-16T09:52:23.056Z,12044
2017-04-16T09:53:34.237Z,12044
2017-04-16T09:54:44.669Z,13112
2017-04-16T09:55:55.761Z,16992
2017-04-16T09:57:06.315Z,26304
2017-04-16T09:58:17.013Z,45632
2017-04-16T09:59:27.437Z,23200
2017-04-16T10:00:38.390Z,13676
2017-04-16T10:01:48.809Z,13852
2017-04-16T10:02:58.880Z,19520
2017-04-16T10:04:09.599Z,23904
2017-04-16T10:05:19.701Z,20800
2017-04-16T10:06:30.077Z,21920
2017-04-16T10:07:40.742Z,23072
2017-04-16T10:08:51.693Z,24960
2017-04-16T10:10:02.474Z,136608
2017-04-16T10:11:13.240Z,28096
2017-04-16T10:12:24.209Z,19264
2017-04-16T10:13:34.947Z,20352
2017-04-16T10:14:45.784Z,19488
2017-04-16T10:15:56.572Z,55520
2017-04-16T10:17:07.331Z,38400
2017-04-16T10:18:17.721Z,132384
2017-04-16T10:19:28.403Z,119424
2017-04-16T10:20:39.167Z,39296
2017-04-16T10:21:49.875Z,112000
2017-04-16T10:22:59.927Z,98528
2017-04-16T10:24:10.808Z,117184
2017-04-16T10:25:21.939Z,141376
2017-04-16T10:26:32.870Z,141952
2017-04-16T10:27:43.727Z,136352
2017-04-16T10:28:54.452Z,128160
2017-04-16T10:30:05.213Z,116160
2017-04-16T10:31:16.256Z,103360
2017-04-16T10:32:27.077Z,132416
2017-04-16T10:33:37.126Z,118112
2017-04-16T10:34:47.873Z,24352
2017-04-16T10:35:58.378Z,21504
2017-04-16T10:37:10.346Z,24192
2017-04-16T10:38:20.787Z,30784
2017-04-16T10:39:31.295Z,21376
2017-04-16T10:40:41.427Z,18912
2017-04-16T10:41:52.244Z,14784
2017-04-16T10:43:02.931Z,14092
2017-04-16T10:44:13.668Z,12256
2017-04-16T10:45:24.591Z,11624
2017-04-16T10:46:35.311Z,16832
2017-04-16T10:47:45.642Z,21120
2017-04-16T10:48:56.319Z,14100
2017-04-16T10:50:07.082Z,9356
2017-04-16T10:51:17.847Z,6064
2017-04-16T10:52:28.618Z,5472
2017-04-16T10:53:39.356Z,6036
2017-04-16T10:54:50.462Z,5780
2017-04-16T10:56:00.965Z,6148
2017-04-16T10:57:11.343Z,6544
2017-04-16T10:58:21.736Z,6172
2017-04-16T10:59:32.598Z,6384
2017-04-16T11:00:43.636Z,7816
2017-04-16T11:01:54.503Z,17568
2017-04-16T11:03:05.281Z,102176
2017-04-16T11:04:16.010Z,50144
2017-04-16T11:05:26.722Z,21312
2017-04-16T11:06:37.416Z,19264
2017-04-16T11:07:48.185Z,12204
2017-04-16T11:08:58.648Z,8668
2017-04-16T11:10:08.873Z,8684
2017-04-16T11:11:20.536Z,15076
2017-04-16T11:12:30.631Z,26432
2017-04-16T11:13:41.342Z,114112
2017-04-16T11:14:52.141Z,95616
2017-04-16T11:16:03.826Z,97760
2017-04-16T11:17:14.579Z,91296
2017-04-16T11:18:25.443Z,77472
2017-04-16T11:19:36.235Z,60992
2017-04-16T11:20:46.993Z,78816
2017-04-16T11:21:57.754Z,135136
2017-04-16T11:23:08.145Z,143072
2017-04-16T11:24:18.859Z,111168
2017-04-16T11:25:29.631Z,121024
2017-04-16T11:26:40.027Z,142176
2017-04-16T11:27:50.791Z,93920
2017-04-16T11:29:01.546Z,63168
2017-04-16T11:30:12.249Z,106752
2017-04-16T11:31:22.632Z,127744
2017-04-16T11:32:33.018Z,107648
2017-04-16T11:33:43.881Z,121376
2017-04-16T11:34:54.278Z,143744
2017-04-16T11:36:05.358Z,134240
2017-04-16T11:37:16.137Z,116352
2017-04-16T11:38:26.922Z,62592
2017-04-16T11:39:37.226Z,43168
2017-04-16T11:40:47.635Z,34336
2017-04-16T11:41:58.729Z,26208
2017-04-16T11:43:09.450Z,93760
2017-04-16T11:44:21.260Z,34560
2017-04-16T11:45:31.857Z,143040
2017-04-16T11:46:42.291Z,139424
2017-04-16T11:47:53.177Z,19904
2017-04-16T11:49:03.936Z,14528
2017-04-16T11:50:14.661Z,12916
2017-04-16T11:51:25.569Z,18048
2017-04-16T11:52:36.348Z,19232
2017-04-16T11:53:47.046Z,17984
2017-04-16T11:54:58.420Z,15904
2017-04-16T11:56:10.199Z,12760
2017-04-16T11:57:20.698Z,10324
2017-04-16T11:58:31.465Z,11340
2017-04-16T11:59:42.538Z,15120
2017-04-16T12:00:52.353Z,14492
2017-04-16T12:02:03.090Z,14932
2017-04-16T12:03:13.799Z,110144
2017-04-16T12:04:24.177Z,87136
2017-04-16T12:05:35.271Z,96800
2017-04-16T12:06:46.194Z,140608
2017-04-16T12:07:56.247Z,24512
2017-04-16T12:09:07.057Z,78656
2017-04-16T12:10:17.384Z,18688
2017-04-16T12:11:28.090Z,9396
2017-04-16T12:12:38.881Z,10076
2017-04-16T12:13:49.672Z,11316
2017-04-16T12:15:00.395Z,13788
2017-04-16T12:16:12.263Z,125312
2017-04-16T12:17:24.233Z,94464
2017-04-16T12:18:35.979Z,79776
2017-04-16T12:19:46.739Z,120384
2017-04-16T12:20:57.541Z,127200
2017-04-16T12:22:08.166Z,68032
2017-04-16T12:23:18.849Z,71648
2017-04-16T12:24:29.575Z,148256
2017-04-16T12:25:40.335Z,149120
2017-04-16T12:26:51.169Z,88576
2017-04-16T12:28:02.042Z,16864
2017-04-16T12:29:14.042Z,15344
2017-04-16T12:30:24.875Z,20480
2017-04-16T12:31:35.205Z,52864
2017-04-16T12:32:45.979Z,27232
2017-04-16T12:33:56.761Z,26176
2017-04-16T12:35:07.235Z,38240
2017-04-16T12:36:18.119Z,12344
2017-04-16T12:37:29.018Z,9820
2017-04-16T12:38:39.743Z,9512
2017-04-16T12:39:50.499Z,10724
2017-04-16T12:41:01.554Z,9320
2017-04-16T12:42:11.960Z,7472
2017-04-16T12:43:22.718Z,6964
2017-04-16T12:44:33.533Z,6504
2017-04-16T12:45:44.263Z,6164
2017-04-16T12:46:55.372Z,6312
2017-04-16T12:48:06.207Z,8444
2017-04-16T12:49:16.998Z,12956
2017-04-16T12:50:28.670Z,17280
2017-04-16T12:51:39.519Z,16224
2017-04-16T12:52:50.577Z,22464
2017-04-16T12:54:00.678Z,113184
2017-04-16T12:55:11.410Z,89504
2017-04-16T12:56:21.810Z,49344
2017-04-16T12:57:32.736Z,56128
2017-04-16T12:58:43.800Z,26176
2017-04-16T12:59:54.593Z,70624
2017-04-16T13:01:05.002Z,62400
2017-04-16T13:02:15.877Z,81888
2017-04-16T13:03:27.542Z,11240
2017-04-16T13:04:38.657Z,10324
2017-04-16T13:05:49.464Z,11288
2017-04-16T13:06:59.920Z,9876
2017-04-16T13:08:10.376Z,8348
2017-04-16T13:09:20.974Z,9848
2017-04-16T13:10:32.075Z,17920
2017-04-16T13:11:43.066Z,23136
2017-04-16T13:12:58.015Z,36736
2017-04-16T13:14:11.160Z,26560
2017-04-16T13:15:23.914Z,28864
2017-04-16T13:16:41.484Z,31776
2017-04-16T13:17:53.319Z,85344
2017-04-16T13:19:03.799Z,104864
2017-04-16T13:20:14.241Z,69568
2017-04-16T13:21:24.940Z,55072
2017-04-16T13:22:35.736Z,45888
2017-04-16T13:23:46.109Z,18560
2017-04-16T13:24:56.997Z,15872
2017-04-16T13:26:07.438Z,17696
2017-04-16T13:27:18.546Z,22080
2017-04-16T13:28:29.534Z,63040
2017-04-16T13:29:40.326Z,53760
2017-04-16T13:30:50.738Z,31072
2017-04-16T13:32:01.111Z,25408
2017-04-16T13:33:11.839Z,24416
2017-04-16T13:34:22.267Z,33984
2017-04-16T13:35:33.043Z,38464
2017-04-16T13:36:43.816Z,60544
2017-04-16T13:37:55.488Z,62624
2017-04-16T13:39:06.597Z,35872
2017-04-16T13:40:17.324Z,23936
2017-04-16T13:41:28.144Z,13696
2017-04-16T13:42:38.630Z,11464
2017-04-16T13:43:49.098Z,14308
2017-04-16T13:44:59.901Z,25472
2017-04-16T13:46:10.721Z,14696
2017-04-16T13:47:21.445Z,13940
2017-04-16T13:48:32.218Z,13220
2017-04-16T13:49:42.928Z,13668
2017-04-16T13:50:53.272Z,13816
2017-04-16T13:52:03.983Z,12964
2017-04-16T13:53:14.846Z,13484
2017-04-16T13:54:25.674Z,15744
2017-04-16T13:55:36.101Z,16672
2017-04-16T13:56:47.122Z,24480
2017-04-16T13:57:57.528Z,23104
2017-04-16T13:59:09.245Z,27328
2017-04-16T14:00:19.952Z,23872
2017-04-16T14:01:31.680Z,21856
2017-04-16T14:02:42.723Z,23488
2017-04-16T14:03:53.453Z,24544
2017-04-16T14:05:03.899Z,18592
2017-04-16T14:06:14.650Z,18208
2017-04-16T14:07:25.069Z,16224
2017-04-16T14:08:36.106Z,16928
2017-04-16T14:09:46.165Z,18368
2017-04-16T14:10:57.846Z,53312
2017-04-16T14:12:08.714Z,17824
2017-04-16T14:13:19.421Z,18880
2017-04-16T14:14:30.456Z,24800
2017-04-16T14:15:40.511Z,21184
2017-04-16T14:16:52.238Z,20064
2017-04-16T14:18:03.002Z,17376
2017-04-16T14:19:14.295Z,15584
2017-04-16T14:20:25.432Z,14096
2017-04-16T14:21:37.116Z,12056
2017-04-16T14:22:48.785Z,9272
2017-04-16T14:23:59.514Z,7056
2017-04-16T14:25:09.956Z,5632
2017-04-16T14:26:21.003Z,4612
2017-04-16T14:27:31.418Z,3936
2017-04-16T14:28:42.129Z,4176
2017-04-16T14:29:52.231Z,7388
2017-04-16T14:31:02.382Z,12004
2017-04-16T14:32:12.431Z,14932
2017-04-16T14:33:22.170Z,17440
2017-04-16T14:34:32.280Z,17184
2017-04-16T14:35:42.044Z,16320
2017-04-16T14:36:51.871Z,14848
2017-04-16T14:38:02.312Z,13632
2017-04-16T14:39:12.545Z,15968
2017-04-16T14:40:22.301Z,40992
2017-04-16T14:41:32.107Z,51456
2017-04-16T14:42:41.857Z,16832
2017-04-16T14:43:51.926Z,14644
2017-04-16T14:45:01.337Z,17472
2017-04-16T14:46:11.215Z,42624
2017-04-16T14:47:20.999Z,56576
2017-04-16T14:48:30.805Z,64320
2017-04-16T14:49:40.963Z,72896
2017-04-16T14:50:51.050Z,40192
2017-04-16T14:52:33.016Z,29504
2017-04-16T14:53:42.755Z,21600
2017-04-16T14:54:52.609Z,17088
2017-04-16T14:56:02.349Z,13888
2017-04-16T14:57:12.098Z,13672
2017-04-16T14:58:21.864Z,13828
2017-04-16T14:59:31.979Z,14188
2017-04-16T15:00:41.710Z,16320
2017-04-16T15:01:51.575Z,28608
2017-04-16T15:03:01.454Z,32160
2017-04-16T15:04:11.694Z,64512
2017-04-16T15:05:21.900Z,18944
2017-04-16T15:06:32.065Z,19552
2017-04-16T15:07:41.823Z,22912
2017-04-16T15:08:51.912Z,17600
2017-04-16T15:10:02.000Z,18880
2017-04-16T15:11:11.751Z,18720
2017-04-16T15:12:21.811Z,21120
2017-04-16T15:13:32.141Z,43456
2017-04-16T15:14:42.402Z,33632
2017-04-16T15:15:52.530Z,38048
2017-04-16T15:17:01.944Z,16352
2017-04-16T15:18:12.029Z,26976
2017-04-16T15:19:21.816Z,20128
2017-04-16T15:20:31.933Z,17568
2017-04-16T15:21:42.026Z,18528
2017-04-16T15:22:52.193Z,24576
2017-04-16T15:24:02.585Z,18112
2017-04-16T15:25:12.349Z,33216
2017-04-16T15:26:22.099Z,32640
2017-04-16T15:27:31.858Z,23712
2017-04-16T15:28:42.007Z,16864
2017-04-16T15:29:52.131Z,16640
2017-04-16T15:31:02.247Z,17120
2017-04-16T15:32:12.349Z,19040
2017-04-16T15:33:22.423Z,28096
2017-04-16T15:34:32.180Z,29312
2017-04-16T15:35:42.635Z,16448
2017-04-16T15:36:52.430Z,17216
2017-04-16T15:38:02.274Z,39424
2017-04-16T15:39:12.030Z,17600
2017-04-16T15:40:21.874Z,19488
2017-04-16T15:41:32.273Z,29248
2017-04-16T15:42:42.192Z,40192
2017-04-16T15:43:52.438Z,30880
2017-04-16T15:45:02.670Z,20896
2017-04-16T15:46:12.414Z,19584